Time;durP1;ratioP1;P1;durP2;ratioP2;P2;SDS_P1;SDS_P2;PMS_P1;PMS_P2;Temp;Humidity;BMP_temperature;BMP_pressure;BME280_temperature;BME280_humidity;BME280_pressure;Samples;Min_cycle;Max_cycle;Signal;HPM_P1;HPM_P2
2023/12/09 00:00:36;;;;;;;89.43;26.95;;;;;;;;;;4894174;29;20032;-75
2023/12/09 00:03:03;;;;;;;75.45;25.50;;;;;;;;;;4892364;29;20032;-75
2023/12/09 00:05:29;;;;;;;80.65;27.23;;;;;;;;;;4892471;29;20048;-76
2023/12/09 00:07:55;;;;;;;82.55;25.80;;;;;;;;;;4893837;29;20041;-75
2023/12/09 00:10:21;;;;;;;92.00;26.20;;;;;;;;;;4893970;29;20111;-75
2023/12/09 00:12:48;;;;;;;81.72;23.95;;;;;;;;;;4894722;29;20067;-76
2023/12/09 00:15:14;;;;;;;84.72;26.00;;;;;;;;;;4895491;29;20038;-75
2023/12/09 00:17:40;;;;;;;86.68;26.58;;;;;;;;;;4898319;29;20048;-75
2023/12/09 00:20:07;;;;;;;76.53;24.23;;;;;;;;;;4895192;29;20679;-74
2023/12/09 00:22:35;;;;;;;78.55;25.50;;;;;;;;;;4897199;29;20048;-77
2023/12/09 00:25:01;;;;;;;77.38;24.98;;;;;;;;;;4886521;29;20037;-76
2023/12/09 00:27:27;;;;;;;74.95;24.88;;;;;;;;;;4891191;29;20135;-75
2023/12/09 00:29:53;;;;;;;82.90;23.08;;;;;;;;;;4892323;29;20036;-75
2023/12/09 00:32:19;;;;;;;72.70;25.00;;;;;;;;;;4892657;29;20045;-75
2023/12/09 00:34:45;;;;;;;75.63;24.63;;;;;;;;;;4900358;29;20028;-75
2023/12/09 00:37:11;;;;;;;74.90;24.10;;;;;;;;;;4905333;29;20032;-76
2023/12/09 00:39:37;;;;;;;59.17;21.83;;;;;;;;;;4896435;29;20039;-78
2023/12/09 00:42:03;;;;;;;77.95;24.33;;;;;;;;;;4895438;29;20048;-77
2023/12/09 00:44:29;;;;;;;64.32;23.70;;;;;;;;;;4893737;29;20080;-79
2023/12/09 00:46:55;;;;;;;72.72;23.08;;;;;;;;;;4893130;29;20779;-75
2023/12/09 00:49:21;;;;;;;77.68;23.52;;;;;;;;;;4892849;29;20075;-75
2023/12/09 00:51:47;;;;;;;65.45;22.35;;;;;;;;;;4897365;29;20057;-75
2023/12/09 00:54:13;;;;;;;73.53;22.65;;;;;;;;;;4893967;29;20041;-75
2023/12/09 00:56:39;;;;;;;81.05;23.88;;;;;;;;;;4894598;29;20388;-75
2023/12/09 00:59:06;;;;;;;67.80;22.17;;;;;;;;;;4893328;29;20494;-75
2023/12/09 01:01:33;;;;;;;61.03;22.33;;;;;;;;;;4886850;29;20036;-78
2023/12/09 01:04:00;;;;;;;77.18;23.27;;;;;;;;;;4893198;29;20365;-75
2023/12/09 01:06:27;;;;;;;70.05;23.67;;;;;;;;;;4905373;29;20043;-76
2023/12/09 01:08:53;;;;;;;54.10;20.15;;;;;;;;;;4888956;29;20032;-76
2023/12/09 01:11:19;;;;;;;54.03;22.00;;;;;;;;;;4892773;29;20347;-75
2023/12/09 01:13:45;;;;;;;60.15;20.95;;;;;;;;;;4898403;29;20454;-75
2023/12/09 01:16:11;;;;;;;69.28;22.15;;;;;;;;;;4897399;29;20128;-74
2023/12/09 01:18:37;;;;;;;62.53;18.98;;;;;;;;;;4897520;29;20028;-74
2023/12/09 01:21:03;;;;;;;55.65;19.25;;;;;;;;;;4897799;29;20118;-74
2023/12/09 01:23:29;;;;;;;66.80;20.55;;;;;;;;;;4904747;29;20080;-74
2023/12/09 01:25:55;;;;;;;61.75;19.95;;;;;;;;;;4893549;29;20044;-75
2023/12/09 01:28:21;;;;;;;51.55;18.45;;;;;;;;;;4892956;29;20041;-74
2023/12/09 01:30:47;;;;;;;73.55;20.63;;;;;;;;;;4895124;29;20033;-75
2023/12/09 01:33:13;;;;;;;65.43;20.17;;;;;;;;;;4892367;29;20040;-75
2023/12/09 01:35:39;;;;;;;60.13;19.20;;;;;;;;;;4894419;29;20035;-75
2023/12/09 01:38:05;;;;;;;59.20;18.88;;;;;;;;;;4891248;29;20028;-75
2023/12/09 01:40:31;;;;;;;53.35;19.00;;;;;;;;;;4892667;29;20116;-74
2023/12/09 01:42:57;;;;;;;53.63;19.35;;;;;;;;;;4892186;29;20044;-75
2023/12/09 01:45:23;;;;;;;59.47;20.15;;;;;;;;;;4894177;29;20024;-76
2023/12/09 01:47:50;;;;;;;69.63;20.25;;;;;;;;;;4891945;29;20040;-74
2023/12/09 01:50:16;;;;;;;56.83;18.15;;;;;;;;;;4891913;29;20108;-74
2023/12/09 01:52:43;;;;;;;54.83;18.75;;;;;;;;;;4891606;29;20089;-74
2023/12/09 01:55:12;;;;;;;63.97;20.27;;;;;;;;;;4899045;29;20039;-75
2023/12/09 01:57:39;;;;;;;64.15;19.73;;;;;;;;;;4893864;29;20040;-75
2023/12/09 02:00:05;;;;;;;67.78;20.85;;;;;;;;;;4890738;29;20036;-74
2023/12/09 02:02:31;;;;;;;67.15;19.05;;;;;;;;;;4892257;29;20036;-75
2023/12/09 02:04:58;;;;;;;53.97;18.42;;;;;;;;;;4892458;29;20037;-75
2023/12/09 02:07:24;;;;;;;67.43;19.67;;;;;;;;;;4892663;29;20036;-75
2023/12/09 02:09:50;;;;;;;69.53;20.35;;;;;;;;;;4889209;29;20089;-74
2023/12/09 02:12:24;;;;;;;57.53;19.92;;;;;;;;;;4886818;29;21797;-73
2023/12/09 02:15:01;;;;;;;65.93;19.27;;;;;;;;;;4878848;29;20474;-75
2023/12/09 02:17:30;;;;;;;58.70;18.35;;;;;;;;;;4898437;29;20496;-74
2023/12/09 02:19:56;;;;;;;61.47;21.35;;;;;;;;;;4893343;29;20043;-74
2023/12/09 02:22:22;;;;;;;62.92;18.77;;;;;;;;;;4892794;29;20064;-73
2023/12/09 02:24:48;;;;;;;59.92;18.48;;;;;;;;;;4891494;29;20025;-74
2023/12/09 02:27:15;;;;;;;53.95;19.17;;;;;;;;;;4891873;29;20079;-74
2023/12/09 02:29:50;;;;;;;56.08;18.45;;;;;;;;;;4891733;29;20092;-74
2023/12/09 02:32:18;;;;;;;51.35;18.30;;;;;;;;;;4899031;29;20116;-74
2023/12/09 02:34:44;;;;;;;53.35;18.48;;;;;;;;;;4895679;29;20033;-74
2023/12/09 02:37:12;;;;;;;52.05;18.75;;;;;;;;;;4891187;29;20033;-74
2023/12/09 02:39:38;;;;;;;61.75;19.05;;;;;;;;;;4894599;29;20033;-74
2023/12/09 02:42:05;;;;;;;55.20;18.58;;;;;;;;;;4891530;29;20480;-74
2023/12/09 02:44:31;;;;;;;55.80;19.17;;;;;;;;;;4891880;29;20036;-76
2023/12/09 02:46:57;;;;;;;61.28;19.08;;;;;;;;;;4891936;29;20024;-75
2023/12/09 02:49:24;;;;;;;49.55;18.70;;;;;;;;;;4890031;29;20091;-74
2023/12/09 02:51:50;;;;;;;51.78;19.00;;;;;;;;;;4892751;29;20448;-74
2023/12/09 02:54:16;;;;;;;58.90;18.25;;;;;;;;;;4891008;29;20033;-76
2023/12/09 02:56:42;;;;;;;61.00;18.58;;;;;;;;;;4907176;29;20037;-73
2023/12/09 02:59:08;;;;;;;60.47;17.67;;;;;;;;;;4889945;29;20423;-74
2023/12/09 03:01:34;;;;;;;49.78;18.50;;;;;;;;;;4900336;29;20033;-75
2023/12/09 03:04:00;;;;;;;60.67;18.33;;;;;;;;;;4895154;29;20036;-75
2023/12/09 03:06:26;;;;;;;53.72;16.75;;;;;;;;;;4892865;29;20040;-74
2023/12/09 03:08:52;;;;;;;44.22;16.77;;;;;;;;;;4899940;29;20032;-73
2023/12/09 03:11:18;;;;;;;51.53;17.58;;;;;;;;;;4896080;29;20478;-74
2023/12/09 03:13:44;;;;;;;49.88;17.25;;;;;;;;;;4894378;29;20091;-74
2023/12/09 03:16:10;;;;;;;57.17;17.52;;;;;;;;;;4900541;29;20100;-74
2023/12/09 03:18:36;;;;;;;52.58;18.05;;;;;;;;;;4894395;29;20032;-74
2023/12/09 03:21:03;;;;;;;66.95;17.73;;;;;;;;;;4899332;29;20051;-74
2023/12/09 03:23:29;;;;;;;44.63;18.13;;;;;;;;;;4899154;29;20033;-75
2023/12/09 03:25:55;;;;;;;45.47;18.60;;;;;;;;;;4896005;29;20179;-75
2023/12/09 03:28:21;;;;;;;46.88;17.70;;;;;;;;;;4894931;29;20037;-75
2023/12/09 03:30:47;;;;;;;60.95;20.77;;;;;;;;;;4900268;29;20051;-74
2023/12/09 03:33:13;;;;;;;50.42;17.83;;;;;;;;;;4901233;29;20044;-75
2023/12/09 03:35:39;;;;;;;55.92;16.92;;;;;;;;;;4892657;29;20120;-75
2023/12/09 03:38:05;;;;;;;63.72;19.33;;;;;;;;;;4894070;29;20364;-75
2023/12/09 03:40:31;;;;;;;59.47;17.95;;;;;;;;;;4892466;29;20039;-75
2023/12/09 03:42:57;;;;;;;57.15;18.85;;;;;;;;;;4886690;29;20076;-74
2023/12/09 03:45:23;;;;;;;57.08;18.25;;;;;;;;;;4896181;29;20068;-74
2023/12/09 03:47:49;;;;;;;56.67;17.10;;;;;;;;;;4895027;29;20419;-74
2023/12/09 03:50:15;;;;;;;47.80;17.27;;;;;;;;;;4898907;29;20032;-74
2023/12/09 03:52:41;;;;;;;55.67;17.00;;;;;;;;;;4894520;29;20055;-75
2023/12/09 03:55:07;;;;;;;51.20;16.98;;;;;;;;;;4896779;29;20031;-74
2023/12/09 03:57:33;;;;;;;54.78;18.50;;;;;;;;;;4900022;29;20032;-74
2023/12/09 04:00:00;;;;;;;56.78;18.20;;;;;;;;;;4896172;29;20024;-74
2023/12/09 04:02:26;;;;;;;44.67;17.48;;;;;;;;;;4893264;29;20037;-74
2023/12/09 04:04:52;;;;;;;57.28;16.48;;;;;;;;;;4912694;29;20040;-74
2023/12/09 04:07:18;;;;;;;45.08;16.98;;;;;;;;;;4895949;29;20029;-74
2023/12/09 04:09:44;;;;;;;50.65;17.98;;;;;;;;;;4904494;29;20492;-74
2023/12/09 04:12:10;;;;;;;60.15;17.42;;;;;;;;;;4892554;29;20502;-74
2023/12/09 04:14:36;;;;;;;52.58;17.95;;;;;;;;;;4895472;29;20044;-74
2023/12/09 04:17:02;;;;;;;57.78;18.23;;;;;;;;;;4896661;29;20448;-78
2023/12/09 04:19:28;;;;;;;57.17;17.73;;;;;;;;;;4895287;29;20028;-74
2023/12/09 04:21:54;;;;;;;57.38;18.20;;;;;;;;;;4892739;29;20414;-74
2023/12/09 04:24:20;;;;;;;50.58;16.30;;;;;;;;;;4904594;29;20104;-74
2023/12/09 04:26:46;;;;;;;42.67;14.93;;;;;;;;;;4893465;29;20108;-74
2023/12/09 04:29:12;;;;;;;51.70;16.90;;;;;;;;;;4892435;29;20040;-74
2023/12/09 04:31:39;;;;;;;48.65;15.50;;;;;;;;;;4891649;29;20410;-75
2023/12/09 04:34:05;;;;;;;57.75;15.68;;;;;;;;;;4893325;29;20036;-74
2023/12/09 04:36:31;;;;;;;52.92;17.00;;;;;;;;;;4895349;29;20052;-74
2023/12/09 04:38:57;;;;;;;43.45;14.45;;;;;;;;;;4895035;29;20075;-74
2023/12/09 04:41:23;;;;;;;40.30;15.23;;;;;;;;;;4895361;29;20032;-74
2023/12/09 04:43:50;;;;;;;50.72;16.23;;;;;;;;;;4895003;29;20127;-74
2023/12/09 04:46:16;;;;;;;54.67;16.05;;;;;;;;;;4901550;29;20092;-75
2023/12/09 04:48:43;;;;;;;55.50;16.55;;;;;;;;;;4894051;29;20127;-74
2023/12/09 04:51:09;;;;;;;50.78;16.55;;;;;;;;;;4894368;29;20040;-74
2023/12/09 04:53:35;;;;;;;50.53;16.25;;;;;;;;;;4894339;29;20067;-74
2023/12/09 04:56:01;;;;;;;48.28;14.65;;;;;;;;;;4895092;29;20041;-74
2023/12/09 04:58:27;;;;;;;55.67;16.67;;;;;;;;;;4891619;29;20043;-74
2023/12/09 05:00:53;;;;;;;46.15;14.48;;;;;;;;;;4893828;29;20123;-75
2023/12/09 05:03:20;;;;;;;46.25;15.68;;;;;;;;;;4893696;29;20067;-74
2023/12/09 05:05:46;;;;;;;47.10;15.05;;;;;;;;;;4895177;29;20033;-73
2023/12/09 05:08:12;;;;;;;43.15;14.43;;;;;;;;;;4893256;29;20084;-74
2023/12/09 05:10:38;;;;;;;50.95;14.18;;;;;;;;;;4894433;29;20036;-74
2023/12/09 05:13:04;;;;;;;46.33;14.70;;;;;;;;;;4893525;29;20437;-75
2023/12/09 05:15:30;;;;;;;42.25;14.18;;;;;;;;;;4896472;29;20036;-74
2023/12/09 05:17:56;;;;;;;46.92;13.73;;;;;;;;;;4898407;29;20032;-77
2023/12/09 05:20:23;;;;;;;47.08;14.10;;;;;;;;;;4893711;29;20092;-75
2023/12/09 05:22:49;;;;;;;54.28;17.35;;;;;;;;;;4893945;29;20686;-74
2023/12/09 05:25:15;;;;;;;43.60;13.50;;;;;;;;;;4893955;29;20169;-74
2023/12/09 05:27:41;;;;;;;38.78;14.00;;;;;;;;;;4894360;29;20024;-74
2023/12/09 05:30:07;;;;;;;43.78;15.38;;;;;;;;;;4893122;29;20036;-74
2023/12/09 05:32:33;;;;;;;61.20;15.38;;;;;;;;;;4891994;29;20052;-74
2023/12/09 05:34:59;;;;;;;45.47;14.50;;;;;;;;;;4889303;29;20099;-75
2023/12/09 05:37:25;;;;;;;45.35;14.00;;;;;;;;;;4892933;29;20530;-75
2023/12/09 05:39:51;;;;;;;44.97;14.13;;;;;;;;;;4892559;29;20700;-74
2023/12/09 05:42:17;;;;;;;43.95;13.18;;;;;;;;;;4886875;29;20036;-76
2023/12/09 05:44:43;;;;;;;34.92;14.00;;;;;;;;;;4892458;29;20059;-73
2023/12/09 05:47:09;;;;;;;42.40;13.30;;;;;;;;;;4899825;29;20087;-72
2023/12/09 05:49:35;;;;;;;49.88;13.52;;;;;;;;;;4892833;29;20087;-75
2023/12/09 05:52:01;;;;;;;39.42;13.38;;;;;;;;;;4891043;29;20100;-76
2023/12/09 05:54:28;;;;;;;39.08;13.00;;;;;;;;;;4890045;29;20039;-77
2023/12/09 05:56:54;;;;;;;41.10;13.52;;;;;;;;;;4885299;29;20599;-73
2023/12/09 05:59:20;;;;;;;37.80;12.95;;;;;;;;;;4891421;29;20113;-74
2023/12/09 06:01:46;;;;;;;36.70;11.88;;;;;;;;;;4902164;29;20119;-73
2023/12/09 06:04:12;;;;;;;42.05;12.73;;;;;;;;;;4892850;29;20029;-73
2023/12/09 06:06:38;;;;;;;40.05;14.63;;;;;;;;;;4899641;29;20032;-73
2023/12/09 06:09:04;;;;;;;36.38;11.88;;;;;;;;;;4893793;29;20055;-74
2023/12/09 06:11:31;;;;;;;45.67;12.05;;;;;;;;;;4893996;29;20107;-73
2023/12/09 06:13:57;;;;;;;41.88;12.63;;;;;;;;;;4892232;29;20059;-76
2023/12/09 06:16:23;;;;;;;40.90;12.23;;;;;;;;;;4903326;29;20139;-73
2023/12/09 06:18:49;;;;;;;48.83;13.27;;;;;;;;;;4893029;29;20064;-74
2023/12/09 06:21:22;;;;;;;40.70;12.27;;;;;;;;;;4894027;29;20037;-74
2023/12/09 06:23:49;;;;;;;42.55;11.45;;;;;;;;;;4894181;29;20071;-73
2023/12/09 06:26:15;;;;;;;42.70;11.98;;;;;;;;;;4892296;29;20641;-75
2023/12/09 06:28:41;;;;;;;35.15;10.50;;;;;;;;;;4894108;29;20081;-74
2023/12/09 06:31:07;;;;;;;33.97;11.48;;;;;;;;;;4901462;29;20464;-74
2023/12/09 06:33:34;;;;;;;33.17;11.27;;;;;;;;;;4904105;29;20048;-73
2023/12/09 06:36:00;;;;;;;40.15;11.57;;;;;;;;;;4894392;29;20028;-73
2023/12/09 06:38:26;;;;;;;36.72;12.48;;;;;;;;;;4891571;29;20072;-80
2023/12/09 06:40:52;;;;;;;36.95;13.65;;;;;;;;;;4895678;29;20021;-83
2023/12/09 06:43:18;;;;;;;34.58;11.13;;;;;;;;;;4895710;29;20427;-74
2023/12/09 06:45:44;;;;;;;35.60;11.15;;;;;;;;;;4893346;29;20025;-75
2023/12/09 06:48:10;;;;;;;36.55;11.50;;;;;;;;;;4895565;29;20108;-75
2023/12/09 06:50:36;;;;;;;33.72;10.05;;;;;;;;;;4896374;29;20084;-75
2023/12/09 06:53:02;;;;;;;34.33;10.70;;;;;;;;;;4887944;29;20156;-74
2023/12/09 06:55:28;;;;;;;40.00;12.70;;;;;;;;;;4878538;29;20487;-74
2023/12/09 06:57:54;;;;;;;42.08;13.40;;;;;;;;;;4879024;29;20048;-74
2023/12/09 07:00:20;;;;;;;33.75;10.32;;;;;;;;;;4896917;29;20387;-73
2023/12/09 07:02:46;;;;;;;34.92;10.95;;;;;;;;;;4902994;29;20806;-75
2023/12/09 07:05:13;;;;;;;33.50;10.77;;;;;;;;;;4895506;29;20048;-75
2023/12/09 07:07:39;;;;;;;47.20;10.70;;;;;;;;;;4894877;29;20526;-75
2023/12/09 07:10:06;;;;;;;39.30;12.00;;;;;;;;;;4896380;29;20033;-76
2023/12/09 07:12:32;;;;;;;40.45;10.75;;;;;;;;;;4896746;29;20044;-75
2023/12/09 07:15:01;;;;;;;44.97;12.02;;;;;;;;;;4897541;29;20577;-76
2023/12/09 07:17:27;;;;;;;31.05;10.13;;;;;;;;;;4899284;29;20443;-75
2023/12/09 07:19:54;;;;;;;38.60;10.57;;;;;;;;;;4896767;29;20032;-75
2023/12/09 07:22:20;;;;;;;45.63;10.90;;;;;;;;;;4895591;29;20044;-75
2023/12/09 07:24:46;;;;;;;37.38;11.02;;;;;;;;;;4892963;29;20514;-74
2023/12/09 07:27:12;;;;;;;81.70;36.72;;;;;;;;;;4886927;29;20515;-76
2023/12/09 07:29:39;;;;;;;36.13;9.55;;;;;;;;;;4896649;29;20438;-74
2023/12/09 07:32:05;;;;;;;32.55;11.32;;;;;;;;;;4895028;29;20585;-73
2023/12/09 07:34:31;;;;;;;34.67;9.73;;;;;;;;;;4894102;29;20036;-73
2023/12/09 07:36:57;;;;;;;36.15;9.50;;;;;;;;;;4895237;29;20072;-72
2023/12/09 07:39:23;;;;;;;33.05;10.15;;;;;;;;;;4893453;29;20040;-75
2023/12/09 07:41:52;;;;;;;31.92;9.52;;;;;;;;;;4896224;29;20119;-72
2023/12/09 07:44:19;;;;;;;36.03;9.23;;;;;;;;;;4896384;29;20033;-71
2023/12/09 07:46:45;;;;;;;27.83;9.85;;;;;;;;;;4906139;29;20032;-73
2023/12/09 07:49:11;;;;;;;42.90;10.20;;;;;;;;;;4895078;29;20077;-78
2023/12/09 07:51:38;;;;;;;44.00;7.75;;;;;;;;;;4895896;29;20033;-73
2023/12/09 07:54:04;;;;;;;34.40;9.15;;;;;;;;;;4896300;29;20055;-73
2023/12/09 07:56:30;;;;;;;35.55;7.95;;;;;;;;;;4894617;29;20514;-73
2023/12/09 07:58:57;;;;;;;32.10;8.07;;;;;;;;;;4896630;29;20059;-72
2023/12/09 08:01:23;;;;;;;43.97;8.35;;;;;;;;;;4896221;29;20035;-74
2023/12/09 08:03:49;;;;;;;42.35;9.15;;;;;;;;;;4894661;29;20043;-71
2023/12/09 08:06:16;;;;;;;43.17;7.47;;;;;;;;;;4895539;29;20035;-73
2023/12/09 08:08:42;;;;;;;32.70;7.00;;;;;;;;;;4895625;29;20420;-72
2023/12/09 08:11:08;;;;;;;35.20;8.68;;;;;;;;;;4896463;29;20436;-72
2023/12/09 08:13:34;;;;;;;39.40;8.85;;;;;;;;;;4895800;29;20036;-74
2023/12/09 08:16:00;;;;;;;40.63;7.70;;;;;;;;;;4891757;29;20433;-73
2023/12/09 08:18:26;;;;;;;25.13;6.80;;;;;;;;;;4886698;29;20021;-72
2023/12/09 08:20:52;;;;;;;35.90;6.75;;;;;;;;;;4894618;29;20046;-72
2023/12/09 08:23:19;;;;;;;30.52;7.63;;;;;;;;;;4896286;29;20228;-74
2023/12/09 08:25:45;;;;;;;36.67;7.28;;;;;;;;;;4894481;29;20044;-73
2023/12/09 08:28:11;;;;;;;34.58;9.32;;;;;;;;;;4894193;29;20490;-72
2023/12/09 08:30:39;;;;;;;35.72;7.35;;;;;;;;;;4895385;29;20036;-74
2023/12/09 08:33:05;;;;;;;33.40;7.65;;;;;;;;;;4877234;29;20041;-73
2023/12/09 08:35:31;;;;;;;32.42;6.90;;;;;;;;;;4877316;29;20101;-76
2023/12/09 08:37:57;;;;;;;41.30;7.63;;;;;;;;;;4881668;29;20037;-73
2023/12/09 08:40:23;;;;;;;38.30;7.85;;;;;;;;;;4891255;29;20471;-72
2023/12/09 08:42:49;;;;;;;30.85;7.55;;;;;;;;;;4895223;29;20043;-72
2023/12/09 08:45:16;;;;;;;32.67;7.75;;;;;;;;;;4896630;29;20519;-75
2023/12/09 08:47:42;;;;;;;41.65;8.07;;;;;;;;;;4896168;29;20036;-73
2023/12/09 08:50:08;;;;;;;24.38;7.20;;;;;;;;;;4895121;29;20025;-73
2023/12/09 08:52:35;;;;;;;27.67;7.78;;;;;;;;;;4895273;29;20036;-73
2023/12/09 08:55:01;;;;;;;32.35;6.85;;;;;;;;;;4893900;29;20515;-73
2023/12/09 08:57:28;;;;;;;30.67;6.70;;;;;;;;;;4895073;29;20051;-72
2023/12/09 08:59:54;;;;;;;27.90;8.98;;;;;;;;;;4894807;29;20105;-72
2023/12/09 09:02:21;;;;;;;23.08;6.30;;;;;;;;;;4892680;29;20029;-73
2023/12/09 09:04:47;;;;;;;29.85;8.40;;;;;;;;;;4895004;29;20044;-72
2023/12/09 09:07:14;;;;;;;29.98;6.80;;;;;;;;;;4894982;29;20475;-71
2023/12/09 09:09:40;;;;;;;32.50;6.93;;;;;;;;;;4893874;29;20546;-73
2023/12/09 09:12:07;;;;;;;32.17;7.95;;;;;;;;;;4893681;29;20487;-74
2023/12/09 09:14:36;;;;;;;25.75;6.85;;;;;;;;;;4894724;29;20107;-74
2023/12/09 09:17:03;;;;;;;22.27;6.00;;;;;;;;;;4898521;29;20053;-73
2023/12/09 09:19:29;;;;;;;21.45;5.53;;;;;;;;;;4893887;29;20424;-73
2023/12/09 09:21:55;;;;;;;32.78;8.25;;;;;;;;;;4893551;29;20055;-73
2023/12/09 09:24:21;;;;;;;25.92;6.40;;;;;;;;;;4891578;29;20162;-73
2023/12/09 09:26:47;;;;;;;26.40;5.45;;;;;;;;;;4892981;29;20123;-73
2023/12/09 09:29:13;;;;;;;33.47;6.47;;;;;;;;;;4893461;29;20037;-72
2023/12/09 09:31:39;;;;;;;25.98;5.43;;;;;;;;;;4887207;29;20029;-72
2023/12/09 09:34:05;;;;;;;29.35;6.05;;;;;;;;;;4892326;29;20048;-72
2023/12/09 09:36:31;;;;;;;26.95;5.95;;;;;;;;;;4892963;29;20391;-75
2023/12/09 09:38:57;;;;;;;20.65;6.05;;;;;;;;;;4892114;29;20555;-74
2023/12/09 09:41:27;;;;;;;35.65;7.63;;;;;;;;;;4892636;29;20158;-72
2023/12/09 09:44:01;;;;;;;27.88;5.85;;;;;;;;;;4892475;29;20063;-71
2023/12/09 09:46:27;;;;;;;38.92;12.02;;;;;;;;;;4903043;29;20036;-78
2023/12/09 09:48:54;;;;;;;26.42;5.57;;;;;;;;;;4890742;29;20090;-78
2023/12/09 09:51:28;;;;;;;17.50;5.43;;;;;;;;;;4893369;29;20036;-77
2023/12/09 09:54:14;;;;;;;23.55;5.15;;;;;;;;;;4884086;29;20443;-76
2023/12/09 09:56:40;;;;;;;22.02;5.18;;;;;;;;;;4891300;29;20028;-79
2023/12/09 09:59:07;;;;;;;16.55;4.50;;;;;;;;;;4892197;29;20040;-76
2023/12/09 10:01:33;;;;;;;27.63;4.68;;;;;;;;;;4893127;29;20076;-77
2023/12/09 10:03:59;;;;;;;26.52;4.60;;;;;;;;;;4891909;29;20047;-78
2023/12/09 10:06:25;;;;;;;25.95;5.30;;;;;;;;;;4891181;29;20043;-77
2023/12/09 10:08:51;;;;;;;23.05;5.38;;;;;;;;;;4892708;29;20131;-76
2023/12/09 10:11:18;;;;;;;17.38;5.03;;;;;;;;;;4893112;29;20028;-76
2023/12/09 10:13:44;;;;;;;24.58;6.30;;;;;;;;;;4893396;29;20040;-81
2023/12/09 10:16:10;;;;;;;26.52;6.13;;;;;;;;;;4892093;29;20060;-76
2023/12/09 10:18:37;;;;;;;25.25;5.07;;;;;;;;;;4893367;29;20028;-75
2023/12/09 10:21:04;;;;;;;21.23;4.80;;;;;;;;;;4890990;29;20039;-77
2023/12/09 10:23:31;;;;;;;17.17;4.50;;;;;;;;;;4888848;29;20588;-78
2023/12/09 10:25:58;;;;;;;21.40;4.55;;;;;;;;;;4892850;29;20029;-78
2023/12/09 10:28:24;;;;;;;22.33;4.57;;;;;;;;;;4892324;29;20028;-77
2023/12/09 10:30:51;;;;;;;23.20;5.18;;;;;;;;;;4890916;29;20539;-77
2023/12/09 10:33:17;;;;;;;22.50;4.25;;;;;;;;;;4886514;29;20372;-75
2023/12/09 10:35:44;;;;;;;22.00;5.05;;;;;;;;;;4892119;29;20046;-75
2023/12/09 10:38:10;;;;;;;19.95;4.35;;;;;;;;;;4891706;29;20043;-76
2023/12/09 10:40:36;;;;;;;17.25;4.18;;;;;;;;;;4890460;29;20143;-74
2023/12/09 10:43:03;;;;;;;22.63;4.53;;;;;;;;;;4893174;29;20044;-74
2023/12/09 10:45:29;;;;;;;26.83;5.95;;;;;;;;;;4896873;29;20031;-76
2023/12/09 10:47:55;;;;;;;14.45;3.97;;;;;;;;;;4897387;29;20036;-74
2023/12/09 10:50:22;;;;;;;15.63;3.38;;;;;;;;;;4888366;29;20100;-74
2023/12/09 10:52:48;;;;;;;22.65;4.55;;;;;;;;;;4889379;29;20043;-77
2023/12/09 10:55:15;;;;;;;22.02;4.57;;;;;;;;;;4891183;29;20363;-75
2023/12/09 10:57:41;;;;;;;20.13;3.92;;;;;;;;;;4892062;29;20119;-78
2023/12/09 11:00:10;;;;;;;16.95;3.58;;;;;;;;;;4893429;29;20040;-80
2023/12/09 11:02:39;;;;;;;14.77;3.10;;;;;;;;;;4888643;29;20032;-74
2023/12/09 11:05:05;;;;;;;23.33;6.68;;;;;;;;;;4887092;29;20071;-75
2023/12/09 11:07:33;;;;;;;28.42;10.23;;;;;;;;;;4891745;29;20087;-74
2023/12/09 11:10:00;;;;;;;22.15;4.55;;;;;;;;;;4898664;29;20041;-76
2023/12/09 11:12:31;;;;;;;23.88;4.18;;;;;;;;;;4892878;29;20044;-77
2023/12/09 11:15:00;;;;;;;24.58;4.03;;;;;;;;;;4892634;29;20028;-76
2023/12/09 11:17:37;;;;;;;23.83;3.47;;;;;;;;;;4890310;29;20052;-76
2023/12/09 11:20:09;;;;;;;14.85;3.35;;;;;;;;;;4888405;29;20033;-77
2023/12/09 11:22:40;;;;;;;14.13;3.55;;;;;;;;;;4891951;29;20036;-76
2023/12/09 11:25:08;;;;;;;17.67;3.80;;;;;;;;;;4892795;29;20092;-76
2023/12/09 11:27:34;;;;;;;13.77;3.35;;;;;;;;;;4892257;29;20504;-75
2023/12/09 11:30:00;;;;;;;16.83;3.10;;;;;;;;;;4895052;29;20029;-75
2023/12/09 11:32:27;;;;;;;19.23;3.00;;;;;;;;;;4895443;29;20048;-78
2023/12/09 11:34:53;;;;;;;14.65;4.22;;;;;;;;;;4894614;29;20127;-78
2023/12/09 11:37:20;;;;;;;18.92;4.10;;;;;;;;;;4895061;29;20132;-74
2023/12/09 11:39:47;;;;;;;16.80;3.13;;;;;;;;;;4896510;29;20043;-75
2023/12/09 11:42:13;;;;;;;13.27;4.28;;;;;;;;;;4894942;29;20041;-77
2023/12/09 11:44:39;;;;;;;14.70;3.33;;;;;;;;;;4895509;29;20598;-74
2023/12/09 11:47:06;;;;;;;21.85;3.35;;;;;;;;;;4896320;29;20064;-75
2023/12/09 11:49:32;;;;;;;18.63;5.03;;;;;;;;;;4895450;29;20029;-79
2023/12/09 11:51:58;;;;;;;16.02;3.70;;;;;;;;;;4894737;29;20040;-79
2023/12/09 11:54:24;;;;;;;13.27;3.50;;;;;;;;;;4895861;29;20115;-74
2023/12/09 11:56:51;;;;;;;21.33;5.55;;;;;;;;;;4895217;29;20064;-78
2023/12/09 11:59:17;;;;;;;13.27;2.75;;;;;;;;;;4893094;29;20092;-78
2023/12/09 12:01:43;;;;;;;8.32;2.10;;;;;;;;;;4907660;29;20529;-74
2023/12/09 12:04:09;;;;;;;14.05;3.90;;;;;;;;;;4895422;29;20051;-74
2023/12/09 12:06:36;;;;;;;15.10;2.97;;;;;;;;;;4895208;29;20479;-73
2023/12/09 12:09:05;;;;;;;12.70;2.67;;;;;;;;;;4889048;29;20116;-73
2023/12/09 12:11:33;;;;;;;17.48;3.78;;;;;;;;;;4895683;29;20036;-74
2023/12/09 12:14:00;;;;;;;9.80;2.50;;;;;;;;;;4895025;29;20036;-77
2023/12/09 12:16:26;;;;;;;15.43;2.90;;;;;;;;;;4897219;29;20135;-75
2023/12/09 12:18:54;;;;;;;16.23;3.50;;;;;;;;;;4891883;29;20043;-76
2023/12/09 12:21:20;;;;;;;10.32;3.10;;;;;;;;;;4877036;29;20587;-80
2023/12/09 12:23:51;;;;;;;12.95;3.83;;;;;;;;;;4890024;29;20033;-78
2023/12/09 12:26:17;;;;;;;13.57;2.50;;;;;;;;;;4894508;29;20044;-76
2023/12/09 12:28:48;;;;;;;10.02;2.70;;;;;;;;;;4893195;29;20036;-78
2023/12/09 12:31:14;;;;;;;10.98;2.80;;;;;;;;;;4897559;29;20025;-79
2023/12/09 12:33:40;;;;;;;13.07;2.75;;;;;;;;;;4891285;29;20181;-77
2023/12/09 12:36:07;;;;;;;16.60;3.35;;;;;;;;;;4888437;29;20035;-75
2023/12/09 12:38:33;;;;;;;13.93;3.00;;;;;;;;;;4891455;29;20033;-74
2023/12/09 12:40:59;;;;;;;9.00;2.13;;;;;;;;;;4894757;29;20522;-76
2023/12/09 12:43:30;;;;;;;10.48;2.78;;;;;;;;;;4894553;29;20036;-74
2023/12/09 13:01:50;;;;;;;15.30;2.20;;;;;;;;;;5427429;23;20242;-79
2023/12/09 13:04:16;;;;;;;19.65;6.03;;;;;;;;;;4896663;29;20056;-76
2023/12/09 13:06:42;;;;;;;11.02;2.67;;;;;;;;;;4907638;29;20060;-76
2023/12/09 13:09:08;;;;;;;11.85;2.28;;;;;;;;;;4902807;29;20492;-76
2023/12/09 13:11:34;;;;;;;10.52;2.60;;;;;;;;;;4913197;29;20032;-76
2023/12/09 13:14:01;;;;;;;15.00;2.50;;;;;;;;;;4905523;29;20052;-75
2023/12/09 13:16:27;;;;;;;10.10;2.25;;;;;;;;;;4915538;29;20557;-81
2023/12/09 13:18:53;;;;;;;9.68;3.55;;;;;;;;;;4895466;29;20036;-75
2023/12/09 13:21:20;;;;;;;21.23;6.15;;;;;;;;;;4908392;29;20028;-79
2023/12/09 13:23:46;;;;;;;10.65;2.33;;;;;;;;;;4892021;29;20341;-77
2023/12/09 13:26:12;;;;;;;14.73;2.75;;;;;;;;;;4892913;29;20047;-76
2023/12/09 13:28:39;;;;;;;13.60;2.63;;;;;;;;;;4895684;29;20040;-75
2023/12/09 13:31:05;;;;;;;9.68;3.05;;;;;;;;;;4906938;29;20111;-80
2023/12/09 13:33:32;;;;;;;10.82;3.30;;;;;;;;;;4909287;29;20071;-78
2023/12/09 13:35:58;;;;;;;16.98;4.63;;;;;;;;;;4896909;29;20340;-78
2023/12/09 13:38:24;;;;;;;11.25;3.03;;;;;;;;;;4899189;29;20497;-79
2023/12/09 13:40:50;;;;;;;13.23;2.45;;;;;;;;;;4910653;29;20064;-80
2023/12/09 13:43:16;;;;;;;11.32;2.75;;;;;;;;;;4912061;29;20277;-77
2023/12/09 13:45:43;;;;;;;15.43;3.53;;;;;;;;;;4896605;29;20042;-75
2023/12/09 13:48:09;;;;;;;16.65;4.22;;;;;;;;;;4922361;29;20028;-79
2023/12/09 13:50:39;;;;;;;17.50;5.63;;;;;;;;;;4911800;29;20032;-79
2023/12/09 13:53:06;;;;;;;15.77;4.95;;;;;;;;;;4903491;29;20040;-80
2023/12/09 13:55:32;;;;;;;17.58;3.78;;;;;;;;;;4908929;29;20041;-80
2023/12/09 13:57:58;;;;;;;16.27;3.90;;;;;;;;;;4912875;29;20027;-80
2023/12/09 14:00:24;;;;;;;16.25;3.80;;;;;;;;;;4910784;29;20032;-79
2023/12/09 14:02:50;;;;;;;15.50;4.25;;;;;;;;;;4905248;29;20052;-79
2023/12/09 14:05:16;;;;;;;12.25;3.45;;;;;;;;;;4912404;29;20036;-79
2023/12/09 14:07:43;;;;;;;15.50;5.25;;;;;;;;;;4912332;29;20038;-78
2023/12/09 14:10:09;;;;;;;21.20;6.22;;;;;;;;;;4912639;29;20328;-79
2023/12/09 14:12:35;;;;;;;22.42;9.40;;;;;;;;;;4906536;29;20032;-80
2023/12/09 14:15:01;;;;;;;16.42;2.90;;;;;;;;;;4910626;29;20047;-79
2023/12/09 14:17:28;;;;;;;18.23;3.10;;;;;;;;;;4911486;29;20059;-80
2023/12/09 14:19:55;;;;;;;19.45;3.63;;;;;;;;;;4902996;29;20037;-79
2023/12/09 14:22:21;;;;;;;14.35;3.03;;;;;;;;;;4893442;29;20041;-79
2023/12/09 14:24:47;;;;;;;18.30;3.55;;;;;;;;;;4910215;29;20071;-79
2023/12/09 14:27:13;;;;;;;11.55;2.38;;;;;;;;;;4909003;29;20036;-79
2023/12/09 14:29:40;;;;;;;15.80;2.72;;;;;;;;;;4908325;29;20111;-78
2023/12/09 14:32:06;;;;;;;13.52;3.30;;;;;;;;;;4909232;29;20366;-78
2023/12/09 14:34:32;;;;;;;18.52;3.30;;;;;;;;;;4912533;29;20047;-78